sensor_id;sensor_type;location;lat;lon;timestamp;P1;durP1;ratioP1;P2;durP2;ratioP2
14342;SDS011;7255;53.596;9.960;2022-07-03T00:02:11;3.90;;;2.47;;
14342;SDS011;7255;53.596;9.960;2022-07-03T00:04:37;2.72;;;2.05;;
14342;SDS011;7255;53.596;9.960;2022-07-03T00:07:03;2.72;;;2.08;;
14342;SDS011;7255;53.596;9.960;2022-07-03T00:09:30;3.50;;;2.37;;
14342;SDS011;7255;53.596;9.960;2022-07-03T00:11:56;2.60;;;2.10;;
14342;SDS011;7255;53.596;9.960;2022-07-03T00:14:24;3.03;;;2.33;;
14342;SDS011;7255;53.596;9.960;2022-07-03T00:16:51;2.40;;;2.20;;
14342;SDS011;7255;53.596;9.960;2022-07-03T00:19:17;2.72;;;1.90;;
14342;SDS011;7255;53.596;9.960;2022-07-03T00:21:44;2.00;;;1.83;;
14342;SDS011;7255;53.596;9.960;2022-07-03T00:24:14;2.00;;;1.80;;
14342;SDS011;7255;53.596;9.960;2022-07-03T00:26:46;2.30;;;2.10;;
14342;SDS011;7255;53.596;9.960;2022-07-03T00:29:16;2.70;;;2.20;;
14342;SDS011;7255;53.596;9.960;2022-07-03T00:31:45;1.87;;;1.77;;
14342;SDS011;7255;53.596;9.960;2022-07-03T00:34:14;2.57;;;2.07;;
14342;SDS011;7255;53.596;9.960;2022-07-03T00:36:42;2.60;;;1.85;;
14342;SDS011;7255;53.596;9.960;2022-07-03T00:39:10;2.72;;;1.92;;
14342;SDS011;7255;53.596;9.960;2022-07-03T00:41:37;3.15;;;1.85;;
14342;SDS011;7255;53.596;9.960;2022-07-03T00:44:03;2.17;;;1.95;;
14342;SDS011;7255;53.596;9.960;2022-07-03T00:46:30;2.03;;;1.83;;
14342;SDS011;7255;53.596;9.960;2022-07-03T00:48:58;2.20;;;2.00;;
14342;SDS011;7255;53.596;9.960;2022-07-03T00:51:25;3.55;;;2.00;;
14342;SDS011;7255;53.596;9.960;2022-07-03T00:53:53;2.00;;;1.80;;
14342;SDS011;7255;53.596;9.960;2022-07-03T00:56:22;2.03;;;1.83;;
14342;SDS011;7255;53.596;9.960;2022-07-03T00:58:52;2.50;;;1.85;;
14342;SDS011;7255;53.596;9.960;2022-07-03T01:01:20;2.37;;;1.90;;
14342;SDS011;7255;53.596;9.960;2022-07-03T01:03:48;2.10;;;1.67;;
14342;SDS011;7255;53.596;9.960;2022-07-03T01:06:25;2.20;;;1.98;;
14342;SDS011;7255;53.596;9.960;2022-07-03T01:08:57;1.92;;;1.83;;
14342;SDS011;7255;53.596;9.960;2022-07-03T01:11:31;1.75;;;1.65;;
14342;SDS011;7255;53.596;9.960;2022-07-03T01:14:04;2.10;;;1.90;;
14342;SDS011;7255;53.596;9.960;2022-07-03T01:16:45;2.03;;;1.90;;
14342;SDS011;7255;53.596;9.960;2022-07-03T01:19:21;2.30;;;1.75;;
14342;SDS011;7255;53.596;9.960;2022-07-03T01:22:02;3.15;;;1.80;;
14342;SDS011;7255;53.596;9.960;2022-07-03T01:24:48;1.98;;;1.70;;
14342;SDS011;7255;53.596;9.960;2022-07-03T01:27:31;2.22;;;1.80;;
14342;SDS011;7255;53.596;9.960;2022-07-03T01:30:02;2.30;;;1.77;;
14342;SDS011;7255;53.596;9.960;2022-07-03T01:32:31;1.90;;;1.70;;
14342;SDS011;7255;53.596;9.960;2022-07-03T01:35:01;2.83;;;1.80;;
14342;SDS011;7255;53.596;9.960;2022-07-03T01:37:29;2.20;;;1.85;;
14342;SDS011;7255;53.596;9.960;2022-07-03T01:39:57;2.85;;;1.85;;
14342;SDS011;7255;53.596;9.960;2022-07-03T01:42:24;2.53;;;1.87;;
14342;SDS011;7255;53.596;9.960;2022-07-03T01:44:52;5.35;;;2.10;;
14342;SDS011;7255;53.596;9.960;2022-07-03T01:47:21;2.10;;;1.90;;
14342;SDS011;7255;53.596;9.960;2022-07-03T01:49:50;2.15;;;1.95;;
14342;SDS011;7255;53.596;9.960;2022-07-03T01:52:18;2.12;;;1.95;;
14342;SDS011;7255;53.596;9.960;2022-07-03T01:54:46;2.50;;;1.85;;
14342;SDS011;7255;53.596;9.960;2022-07-03T01:57:13;2.20;;;2.00;;
14342;SDS011;7255;53.596;9.960;2022-07-03T01:59:40;2.75;;;1.90;;
14342;SDS011;7255;53.596;9.960;2022-07-03T02:02:13;3.50;;;2.27;;
14342;SDS011;7255;53.596;9.960;2022-07-03T02:04:51;2.17;;;1.98;;
14342;SDS011;7255;53.596;9.960;2022-07-03T02:07:24;2.80;;;2.25;;
14342;SDS011;7255;53.596;9.960;2022-07-03T02:10:01;2.33;;;2.10;;
14342;SDS011;7255;53.596;9.960;2022-07-03T02:12:31;2.42;;;2.12;;
14342;SDS011;7255;53.596;9.960;2022-07-03T02:15:04;2.33;;;2.00;;
14342;SDS011;7255;53.596;9.960;2022-07-03T02:17:35;2.40;;;2.10;;
14342;SDS011;7255;53.596;9.960;2022-07-03T02:20:04;2.45;;;2.10;;
14342;SDS011;7255;53.596;9.960;2022-07-03T02:22:33;2.45;;;2.20;;
14342;SDS011;7255;53.596;9.960;2022-07-03T02:25:02;2.22;;;1.87;;
14342;SDS011;7255;53.596;9.960;2022-07-03T02:27:31;3.30;;;1.90;;
14342;SDS011;7255;53.596;9.960;2022-07-03T02:30:07;2.50;;;2.03;;
14342;SDS011;7255;53.596;9.960;2022-07-03T02:32:38;2.30;;;2.10;;
14342;SDS011;7255;53.596;9.960;2022-07-03T02:35:07;3.35;;;2.33;;
14342;SDS011;7255;53.596;9.960;2022-07-03T02:37:38;2.10;;;1.90;;
14342;SDS011;7255;53.596;9.960;2022-07-03T02:40:08;2.35;;;2.00;;
14342;SDS011;7255;53.596;9.960;2022-07-03T02:42:43;2.57;;;2.23;;
14342;SDS011;7255;53.596;9.960;2022-07-03T02:45:11;2.83;;;2.10;;
14342;SDS011;7255;53.596;9.960;2022-07-03T02:47:43;2.53;;;2.25;;
14342;SDS011;7255;53.596;9.960;2022-07-03T02:50:15;2.77;;;2.10;;
14342;SDS011;7255;53.596;9.960;2022-07-03T02:52:50;3.00;;;2.10;;
14342;SDS011;7255;53.596;9.960;2022-07-03T02:55:29;3.33;;;2.53;;
14342;SDS011;7255;53.596;9.960;2022-07-03T02:58:10;2.67;;;2.00;;
14342;SDS011;7255;53.596;9.960;2022-07-03T03:00:52;4.23;;;2.50;;
14342;SDS011;7255;53.596;9.960;2022-07-03T03:03:26;2.70;;;2.17;;
14342;SDS011;7255;53.596;9.960;2022-07-03T03:05:55;3.30;;;2.40;;
14342;SDS011;7255;53.596;9.960;2022-07-03T03:08:27;2.30;;;2.10;;
14342;SDS011;7255;53.596;9.960;2022-07-03T03:11:01;2.37;;;2.17;;
14342;SDS011;7255;53.596;9.960;2022-07-03T03:13:32;2.33;;;2.12;;
14342;SDS011;7255;53.596;9.960;2022-07-03T03:16:00;2.50;;;2.30;;
14342;SDS011;7255;53.596;9.960;2022-07-03T03:18:33;3.50;;;2.20;;
14342;SDS011;7255;53.596;9.960;2022-07-03T03:21:01;2.80;;;2.35;;
14342;SDS011;7255;53.596;9.960;2022-07-03T03:23:30;2.53;;;2.15;;
14342;SDS011;7255;53.596;9.960;2022-07-03T03:26:03;3.57;;;2.00;;
14342;SDS011;7255;53.596;9.960;2022-07-03T03:28:30;2.67;;;2.33;;
14342;SDS011;7255;53.596;9.960;2022-07-03T03:30:56;2.35;;;2.15;;
14342;SDS011;7255;53.596;9.960;2022-07-03T03:33:23;2.58;;;1.90;;
14342;SDS011;7255;53.596;9.960;2022-07-03T03:35:51;2.80;;;2.00;;
14342;SDS011;7255;53.596;9.960;2022-07-03T03:38:17;2.97;;;2.17;;
14342;SDS011;7255;53.596;9.960;2022-07-03T03:40:44;3.35;;;2.30;;
14342;SDS011;7255;53.596;9.960;2022-07-03T03:43:10;2.17;;;1.98;;
14342;SDS011;7255;53.596;9.960;2022-07-03T03:45:37;2.50;;;2.30;;
14342;SDS011;7255;53.596;9.960;2022-07-03T03:48:03;2.20;;;2.00;;
14342;SDS011;7255;53.596;9.960;2022-07-03T03:50:30;2.20;;;1.90;;
14342;SDS011;7255;53.596;9.960;2022-07-03T03:52:59;2.90;;;2.10;;
14342;SDS011;7255;53.596;9.960;2022-07-03T03:55:26;2.53;;;2.00;;
14342;SDS011;7255;53.596;9.960;2022-07-03T03:57:52;3.00;;;2.20;;
14342;SDS011;7255;53.596;9.960;2022-07-03T04:00:18;2.20;;;2.00;;
14342;SDS011;7255;53.596;9.960;2022-07-03T04:02:45;2.40;;;2.12;;
14342;SDS011;7255;53.596;9.960;2022-07-03T04:05:11;3.28;;;2.03;;
14342;SDS011;7255;53.596;9.960;2022-07-03T04:07:37;2.65;;;2.10;;
14342;SDS011;7255;53.596;9.960;2022-07-03T04:10:06;2.33;;;2.00;;
14342;SDS011;7255;53.596;9.960;2022-07-03T04:12:32;3.12;;;2.20;;
14342;SDS011;7255;53.596;9.960;2022-07-03T04:14:59;2.28;;;1.90;;
14342;SDS011;7255;53.596;9.960;2022-07-03T04:17:25;2.55;;;2.03;;
14342;SDS011;7255;53.596;9.960;2022-07-03T04:19:52;2.10;;;1.90;;
14342;SDS011;7255;53.596;9.960;2022-07-03T04:22:18;2.10;;;1.90;;
14342;SDS011;7255;53.596;9.960;2022-07-03T04:24:44;3.17;;;2.08;;
14342;SDS011;7255;53.596;9.960;2022-07-03T04:27:12;2.25;;;2.05;;
14342;SDS011;7255;53.596;9.960;2022-07-03T04:29:38;3.30;;;2.10;;
14342;SDS011;7255;53.596;9.960;2022-07-03T04:32:05;2.63;;;2.20;;
14342;SDS011;7255;53.596;9.960;2022-07-03T04:34:32;2.70;;;2.05;;
14342;SDS011;7255;53.596;9.960;2022-07-03T04:36:58;2.40;;;2.20;;
14342;SDS011;7255;53.596;9.960;2022-07-03T04:39:24;2.42;;;2.17;;
14342;SDS011;7255;53.596;9.960;2022-07-03T04:41:51;3.40;;;2.20;;
14342;SDS011;7255;53.596;9.960;2022-07-03T04:44:18;3.63;;;2.30;;
14342;SDS011;7255;53.596;9.960;2022-07-03T04:46:45;3.30;;;2.03;;
14342;SDS011;7255;53.596;9.960;2022-07-03T04:49:11;2.75;;;2.15;;
14342;SDS011;7255;53.596;9.960;2022-07-03T04:51:37;3.17;;;2.30;;
14342;SDS011;7255;53.596;9.960;2022-07-03T04:54:04;2.55;;;2.10;;
14342;SDS011;7255;53.596;9.960;2022-07-03T04:56:31;2.03;;;1.80;;
14342;SDS011;7255;53.596;9.960;2022-07-03T04:58:57;2.80;;;2.07;;
14342;SDS011;7255;53.596;9.960;2022-07-03T05:01:25;3.10;;;2.00;;
14342;SDS011;7255;53.596;9.960;2022-07-03T05:03:51;3.15;;;2.10;;
14342;SDS011;7255;53.596;9.960;2022-07-03T05:06:17;3.55;;;1.98;;
14342;SDS011;7255;53.596;9.960;2022-07-03T05:08:44;2.30;;;1.90;;
14342;SDS011;7255;53.596;9.960;2022-07-03T05:11:10;3.40;;;2.00;;
14342;SDS011;7255;53.596;9.960;2022-07-03T05:13:36;2.45;;;1.92;;
14342;SDS011;7255;53.596;9.960;2022-07-03T05:16:03;3.35;;;1.98;;
14342;SDS011;7255;53.596;9.960;2022-07-03T05:18:31;2.97;;;1.90;;
14342;SDS011;7255;53.596;9.960;2022-07-03T05:20:57;2.55;;;1.80;;
14342;SDS011;7255;53.596;9.960;2022-07-03T05:23:23;2.55;;;2.10;;
14342;SDS011;7255;53.596;9.960;2022-07-03T05:25:49;2.92;;;2.00;;
14342;SDS011;7255;53.596;9.960;2022-07-03T05:28:16;2.03;;;1.90;;
14342;SDS011;7255;53.596;9.960;2022-07-03T05:30:42;2.00;;;1.80;;
14342;SDS011;7255;53.596;9.960;2022-07-03T05:33:08;1.95;;;1.80;;
14342;SDS011;7255;53.596;9.960;2022-07-03T05:35:36;1.75;;;1.62;;
14342;SDS011;7255;53.596;9.960;2022-07-03T05:38:02;1.85;;;1.67;;
14342;SDS011;7255;53.596;9.960;2022-07-03T05:40:29;2.17;;;1.80;;
14342;SDS011;7255;53.596;9.960;2022-07-03T05:42:55;2.47;;;1.83;;
14342;SDS011;7255;53.596;9.960;2022-07-03T05:45:21;2.78;;;1.80;;
14342;SDS011;7255;53.596;9.960;2022-07-03T05:47:48;2.60;;;1.85;;
14342;SDS011;7255;53.596;9.960;2022-07-03T05:50:14;2.30;;;2.10;;
14342;SDS011;7255;53.596;9.960;2022-07-03T05:52:42;2.30;;;1.90;;
14342;SDS011;7255;53.596;9.960;2022-07-03T05:55:08;2.53;;;1.98;;
14342;SDS011;7255;53.596;9.960;2022-07-03T05:57:34;2.45;;;2.22;;
14342;SDS011;7255;53.596;9.960;2022-07-03T06:00:01;2.57;;;2.13;;
14342;SDS011;7255;53.596;9.960;2022-07-03T06:02:28;2.60;;;2.00;;
14342;SDS011;7255;53.596;9.960;2022-07-03T06:04:54;2.25;;;2.00;;
14342;SDS011;7255;53.596;9.960;2022-07-03T06:07:20;2.12;;;1.92;;
14342;SDS011;7255;53.596;9.960;2022-07-03T06:09:48;2.00;;;1.80;;
14342;SDS011;7255;53.596;9.960;2022-07-03T06:12:14;3.05;;;2.00;;
14342;SDS011;7255;53.596;9.960;2022-07-03T06:14:41;2.20;;;2.00;;
14342;SDS011;7255;53.596;9.960;2022-07-03T06:17:07;3.20;;;2.10;;
14342;SDS011;7255;53.596;9.960;2022-07-03T06:19:33;1.83;;;1.70;;
14342;SDS011;7255;53.596;9.960;2022-07-03T06:22:00;2.67;;;1.87;;
14342;SDS011;7255;53.596;9.960;2022-07-03T06:24:26;2.22;;;1.70;;
14342;SDS011;7255;53.596;9.960;2022-07-03T06:26:54;1.75;;;1.60;;
14342;SDS011;7255;53.596;9.960;2022-07-03T06:29:20;2.70;;;1.65;;
14342;SDS011;7255;53.596;9.960;2022-07-03T06:31:46;2.95;;;1.50;;
14342;SDS011;7255;53.596;9.960;2022-07-03T06:34:13;2.70;;;1.60;;
14342;SDS011;7255;53.596;9.960;2022-07-03T06:36:39;2.60;;;1.58;;
14342;SDS011;7255;53.596;9.960;2022-07-03T06:39:05;2.27;;;1.40;;
14342;SDS011;7255;53.596;9.960;2022-07-03T06:41:31;1.40;;;1.30;;
14342;SDS011;7255;53.596;9.960;2022-07-03T06:43:59;2.30;;;1.35;;
14342;SDS011;7255;53.596;9.960;2022-07-03T06:46:25;2.28;;;1.55;;
14342;SDS011;7255;53.596;9.960;2022-07-03T06:48:52;1.70;;;1.50;;
14342;SDS011;7255;53.596;9.960;2022-07-03T06:51:18;1.50;;;1.40;;
14342;SDS011;7255;53.596;9.960;2022-07-03T06:53:44;2.10;;;1.40;;
14342;SDS011;7255;53.596;9.960;2022-07-03T06:56:11;1.48;;;1.37;;
14342;SDS011;7255;53.596;9.960;2022-07-03T06:58:37;3.55;;;1.58;;
14342;SDS011;7255;53.596;9.960;2022-07-03T07:01:05;2.05;;;1.50;;
14342;SDS011;7255;53.596;9.960;2022-07-03T07:03:31;2.20;;;1.50;;
14342;SDS011;7255;53.596;9.960;2022-07-03T07:05:57;1.80;;;1.60;;
14342;SDS011;7255;53.596;9.960;2022-07-03T07:08:24;1.48;;;1.37;;
14342;SDS011;7255;53.596;9.960;2022-07-03T07:10:50;2.12;;;1.60;;
14342;SDS011;7255;53.596;9.960;2022-07-03T07:13:16;2.58;;;1.60;;
14342;SDS011;7255;53.596;9.960;2022-07-03T07:15:43;1.85;;;1.48;;
14342;SDS011;7255;53.596;9.960;2022-07-03T07:18:10;1.75;;;1.40;;
14342;SDS011;7255;53.596;9.960;2022-07-03T07:20:36;2.30;;;1.52;;
14342;SDS011;7255;53.596;9.960;2022-07-03T07:23:03;2.03;;;1.48;;
14342;SDS011;7255;53.596;9.960;2022-07-03T07:25:29;2.08;;;1.50;;
14342;SDS011;7255;53.596;9.960;2022-07-03T07:27:55;4.23;;;1.63;;
14342;SDS011;7255;53.596;9.960;2022-07-03T07:30:22;3.10;;;1.60;;
14342;SDS011;7255;53.596;9.960;2022-07-03T07:32:48;2.00;;;1.30;;
14342;SDS011;7255;53.596;9.960;2022-07-03T07:35:16;2.00;;;1.50;;
14342;SDS011;7255;53.596;9.960;2022-07-03T07:37:43;1.98;;;1.50;;
14342;SDS011;7255;53.596;9.960;2022-07-03T07:40:09;1.67;;;1.48;;
14342;SDS011;7255;53.596;9.960;2022-07-03T07:42:36;2.62;;;1.60;;
14342;SDS011;7255;53.596;9.960;2022-07-03T07:45:03;1.73;;;1.55;;
14342;SDS011;7255;53.596;9.960;2022-07-03T07:47:30;2.37;;;1.60;;
14342;SDS011;7255;53.596;9.960;2022-07-03T07:49:56;1.62;;;1.50;;
14342;SDS011;7255;53.596;9.960;2022-07-03T07:52:24;1.60;;;1.48;;
14342;SDS011;7255;53.596;9.960;2022-07-03T07:54:50;2.78;;;1.42;;
14342;SDS011;7255;53.596;9.960;2022-07-03T07:57:16;2.17;;;1.50;;
14342;SDS011;7255;53.596;9.960;2022-07-03T07:59:43;1.90;;;1.60;;
14342;SDS011;7255;53.596;9.960;2022-07-03T08:02:09;2.75;;;1.70;;
14342;SDS011;7255;53.596;9.960;2022-07-03T08:04:53;1.80;;;1.40;;
14342;SDS011;7255;53.596;9.960;2022-07-03T08:07:38;2.42;;;1.40;;
14342;SDS011;7255;53.596;9.960;2022-07-03T08:10:04;1.62;;;1.50;;
14342;SDS011;7255;53.596;9.960;2022-07-03T08:12:31;1.80;;;1.40;;
14342;SDS011;7255;53.596;9.960;2022-07-03T08:14:57;1.52;;;1.37;;
14342;SDS011;7255;53.596;9.960;2022-07-03T08:17:23;1.50;;;1.30;;
14342;SDS011;7255;53.596;9.960;2022-07-03T08:19:50;2.65;;;1.52;;
14342;SDS011;7255;53.596;9.960;2022-07-03T08:22:16;2.28;;;1.35;;
14342;SDS011;7255;53.596;9.960;2022-07-03T08:24:44;2.35;;;1.50;;
14342;SDS011;7255;53.596;9.960;2022-07-03T08:27:10;1.70;;;1.50;;
14342;SDS011;7255;53.596;9.960;2022-07-03T08:29:36;1.80;;;1.30;;
14342;SDS011;7255;53.596;9.960;2022-07-03T08:32:03;1.62;;;1.30;;
14342;SDS011;7255;53.596;9.960;2022-07-03T08:34:32;1.50;;;1.30;;
14342;SDS011;7255;53.596;9.960;2022-07-03T08:36:58;4.47;;;1.30;;
14342;SDS011;7255;53.596;9.960;2022-07-03T08:39:24;2.67;;;1.55;;
14342;SDS011;7255;53.596;9.960;2022-07-03T08:41:52;1.40;;;1.30;;
14342;SDS011;7255;53.596;9.960;2022-07-03T08:44:19;2.42;;;1.40;;
14342;SDS011;7255;53.596;9.960;2022-07-03T08:46:48;1.58;;;1.35;;
14342;SDS011;7255;53.596;9.960;2022-07-03T08:49:15;2.10;;;1.25;;
14342;SDS011;7255;53.596;9.960;2022-07-03T08:51:43;2.63;;;1.40;;
14342;SDS011;7255;53.596;9.960;2022-07-03T08:54:11;2.05;;;1.30;;
14342;SDS011;7255;53.596;9.960;2022-07-03T08:56:38;2.95;;;1.27;;
14342;SDS011;7255;53.596;9.960;2022-07-03T08:59:06;1.50;;;1.40;;
14342;SDS011;7255;53.596;9.960;2022-07-03T09:01:33;2.17;;;1.40;;
14342;SDS011;7255;53.596;9.960;2022-07-03T09:04:06;2.50;;;1.60;;
14342;SDS011;7255;53.596;9.960;2022-07-03T09:06:34;2.50;;;1.50;;
14342;SDS011;7255;53.596;9.960;2022-07-03T09:09:01;2.60;;;1.60;;
14342;SDS011;7255;53.596;9.960;2022-07-03T09:11:28;2.50;;;1.30;;
14342;SDS011;7255;53.596;9.960;2022-07-03T09:13:55;2.10;;;1.50;;
14342;SDS011;7255;53.596;9.960;2022-07-03T09:16:23;3.70;;;1.35;;
14342;SDS011;7255;53.596;9.960;2022-07-03T09:18:49;1.52;;;1.40;;
14342;SDS011;7255;53.596;9.960;2022-07-03T09:21:16;2.05;;;1.62;;
14342;SDS011;7255;53.596;9.960;2022-07-03T09:23:43;1.73;;;1.60;;
14342;SDS011;7255;53.596;9.960;2022-07-03T09:26:13;3.15;;;1.50;;
14342;SDS011;7255;53.596;9.960;2022-07-03T09:28:45;2.55;;;1.50;;
14342;SDS011;7255;53.596;9.960;2022-07-03T09:31:16;3.42;;;1.60;;
14342;SDS011;7255;53.596;9.960;2022-07-03T09:33:54;1.67;;;1.50;;
14342;SDS011;7255;53.596;9.960;2022-07-03T09:36:23;1.70;;;1.40;;
14342;SDS011;7255;53.596;9.960;2022-07-03T09:39:10;2.77;;;1.80;;
14342;SDS011;7255;53.596;9.960;2022-07-03T09:41:49;2.85;;;1.70;;
14342;SDS011;7255;53.596;9.960;2022-07-03T09:44:29;3.30;;;1.52;;
14342;SDS011;7255;53.596;9.960;2022-07-03T09:47:08;2.67;;;1.50;;
14342;SDS011;7255;53.596;9.960;2022-07-03T09:52:30;4.10;;;1.67;;
14342;SDS011;7255;53.596;9.960;2022-07-03T09:54:59;3.07;;;1.53;;
14342;SDS011;7255;53.596;9.960;2022-07-03T09:57:27;3.65;;;1.80;;
14342;SDS011;7255;53.596;9.960;2022-07-03T10:00:10;2.53;;;1.60;;
14342;SDS011;7255;53.596;9.960;2022-07-03T10:02:52;3.12;;;1.70;;
14342;SDS011;7255;53.596;9.960;2022-07-03T10:05:21;3.60;;;1.73;;
14342;SDS011;7255;53.596;9.960;2022-07-03T10:07:49;2.20;;;1.70;;
14342;SDS011;7255;53.596;9.960;2022-07-03T10:10:17;4.18;;;1.60;;
14342;SDS011;7255;53.596;9.960;2022-07-03T10:12:44;3.25;;;1.48;;
14342;SDS011;7255;53.596;9.960;2022-07-03T10:15:11;2.40;;;1.60;;
14342;SDS011;7255;53.596;9.960;2022-07-03T10:17:40;1.98;;;1.40;;
14342;SDS011;7255;53.596;9.960;2022-07-03T10:20:08;2.90;;;1.50;;
14342;SDS011;7255;53.596;9.960;2022-07-03T10:22:40;3.10;;;1.47;;
14342;SDS011;7255;53.596;9.960;2022-07-03T10:25:11;2.83;;;1.50;;
14342;SDS011;7255;53.596;9.960;2022-07-03T10:27:39;1.77;;;1.40;;
14342;SDS011;7255;53.596;9.960;2022-07-03T10:30:06;1.83;;;1.27;;
14342;SDS011;7255;53.596;9.960;2022-07-03T10:32:33;1.95;;;1.40;;
14342;SDS011;7255;53.596;9.960;2022-07-03T10:35:00;1.80;;;1.30;;
14342;SDS011;7255;53.596;9.960;2022-07-03T10:37:28;1.37;;;1.10;;
14342;SDS011;7255;53.596;9.960;2022-07-03T10:40:01;1.70;;;1.10;;
14342;SDS011;7255;53.596;9.960;2022-07-03T10:42:48;3.22;;;1.12;;
14342;SDS011;7255;53.596;9.960;2022-07-03T10:45:35;2.58;;;1.23;;
14342;SDS011;7255;53.596;9.960;2022-07-03T10:48:01;2.08;;;1.25;;
14342;SDS011;7255;53.596;9.960;2022-07-03T10:50:27;2.15;;;1.17;;
14342;SDS011;7255;53.596;9.960;2022-07-03T10:52:54;1.75;;;1.00;;
14342;SDS011;7255;53.596;9.960;2022-07-03T10:56:02;2.12;;;1.20;;
14342;SDS011;7255;53.596;9.960;2022-07-03T10:58:30;1.85;;;1.10;;
14342;SDS011;7255;53.596;9.960;2022-07-03T11:00:56;1.67;;;1.10;;
14342;SDS011;7255;53.596;9.960;2022-07-03T11:06:20;1.58;;;1.30;;
14342;SDS011;7255;53.596;9.960;2022-07-03T11:09:08;2.10;;;1.00;;
14342;SDS011;7255;53.596;9.960;2022-07-03T11:11:43;1.83;;;1.30;;
14342;SDS011;7255;53.596;9.960;2022-07-03T11:14:23;2.95;;;1.27;;
14342;SDS011;7255;53.596;9.960;2022-07-03T11:16:59;2.92;;;1.00;;
14342;SDS011;7255;53.596;9.960;2022-07-03T11:19:42;2.30;;;1.20;;
14342;SDS011;7255;53.596;9.960;2022-07-03T11:22:11;2.50;;;1.23;;
14342;SDS011;7255;53.596;9.960;2022-07-03T11:24:46;2.85;;;1.27;;
14342;SDS011;7255;53.596;9.960;2022-07-03T11:27:24;2.65;;;1.40;;
14342;SDS011;7255;53.596;9.960;2022-07-03T11:29:55;2.72;;;1.62;;
14342;SDS011;7255;53.596;9.960;2022-07-03T11:35:24;1.93;;;1.27;;
14342;SDS011;7255;53.596;9.960;2022-07-03T11:38:09;2.10;;;1.30;;
14342;SDS011;7255;53.596;9.960;2022-07-03T11:40:36;1.40;;;1.23;;
14342;SDS011;7255;53.596;9.960;2022-07-03T11:43:06;2.10;;;1.12;;
14342;SDS011;7255;53.596;9.960;2022-07-03T11:45:32;2.20;;;1.10;;
14342;SDS011;7255;53.596;9.960;2022-07-03T11:47:59;1.98;;;1.27;;
14342;SDS011;7255;53.596;9.960;2022-07-03T11:50:35;1.30;;;1.10;;
14342;SDS011;7255;53.596;9.960;2022-07-03T11:53:14;1.62;;;1.20;;
14342;SDS011;7255;53.596;9.960;2022-07-03T11:55:45;2.08;;;1.33;;
14342;SDS011;7255;53.596;9.960;2022-07-03T11:58:13;2.80;;;1.30;;
14342;SDS011;7255;53.596;9.960;2022-07-03T12:00:39;1.87;;;1.15;;
14342;SDS011;7255;53.596;9.960;2022-07-03T12:03:06;2.22;;;1.25;;
14342;SDS011;7255;53.596;9.960;2022-07-03T12:05:33;2.53;;;1.30;;
14342;SDS011;7255;53.596;9.960;2022-07-03T12:08:02;1.90;;;1.40;;
14342;SDS011;7255;53.596;9.960;2022-07-03T12:10:36;1.87;;;1.20;;
14342;SDS011;7255;53.596;9.960;2022-07-03T12:13:04;2.47;;;1.17;;
14342;SDS011;7255;53.596;9.960;2022-07-03T12:15:31;2.90;;;1.17;;
14342;SDS011;7255;53.596;9.960;2022-07-03T12:17:57;2.30;;;1.30;;
14342;SDS011;7255;53.596;9.960;2022-07-03T12:20:24;2.35;;;1.20;;
14342;SDS011;7255;53.596;9.960;2022-07-03T12:22:50;2.25;;;1.40;;
14342;SDS011;7255;53.596;9.960;2022-07-03T12:25:17;2.50;;;1.10;;
14342;SDS011;7255;53.596;9.960;2022-07-03T12:27:43;2.62;;;1.23;;
14342;SDS011;7255;53.596;9.960;2022-07-03T12:30:11;2.43;;;1.40;;
14342;SDS011;7255;53.596;9.960;2022-07-03T12:32:44;2.10;;;1.27;;
14342;SDS011;7255;53.596;9.960;2022-07-03T12:35:11;1.73;;;1.27;;
14342;SDS011;7255;53.596;9.960;2022-07-03T12:37:38;1.85;;;1.17;;
14342;SDS011;7255;53.596;9.960;2022-07-03T12:40:06;1.70;;;1.10;;
14342;SDS011;7255;53.596;9.960;2022-07-03T12:42:42;1.80;;;1.15;;
14342;SDS011;7255;53.596;9.960;2022-07-03T12:45:10;1.10;;;1.00;;
14342;SDS011;7255;53.596;9.960;2022-07-03T12:47:38;2.40;;;1.20;;
14342;SDS011;7255;53.596;9.960;2022-07-03T12:50:07;2.10;;;0.95;;
14342;SDS011;7255;53.596;9.960;2022-07-03T12:52:36;2.53;;;1.15;;
14342;SDS011;7255;53.596;9.960;2022-07-03T12:55:21;1.98;;;1.05;;
14342;SDS011;7255;53.596;9.960;2022-07-03T12:57:48;2.20;;;1.08;;
14342;SDS011;7255;53.596;9.960;2022-07-03T13:00:41;1.30;;;1.00;;
14342;SDS011;7255;53.596;9.960;2022-07-03T13:03:09;2.15;;;1.10;;
14342;SDS011;7255;53.596;9.960;2022-07-03T13:05:53;1.40;;;1.00;;
14342;SDS011;7255;53.596;9.960;2022-07-03T13:08:20;1.42;;;1.00;;
14342;SDS011;7255;53.596;9.960;2022-07-03T13:10:53;1.87;;;1.20;;
14342;SDS011;7255;53.596;9.960;2022-07-03T13:13:20;1.50;;;1.05;;
14342;SDS011;7255;53.596;9.960;2022-07-03T13:15:47;2.33;;;1.20;;
14342;SDS011;7255;53.596;9.960;2022-07-03T13:18:13;3.50;;;1.15;;
14342;SDS011;7255;53.596;9.960;2022-07-03T13:20:39;1.30;;;0.93;;
14342;SDS011;7255;53.596;9.960;2022-07-03T13:23:07;0.97;;;0.87;;
14342;SDS011;7255;53.596;9.960;2022-07-03T13:25:35;2.60;;;1.15;;
14342;SDS011;7255;53.596;9.960;2022-07-03T13:28:05;1.57;;;1.00;;
14342;SDS011;7255;53.596;9.960;2022-07-03T13:30:33;1.58;;;1.02;;
14342;SDS011;7255;53.596;9.960;2022-07-03T13:32:59;1.55;;;1.20;;
14342;SDS011;7255;53.596;9.960;2022-07-03T13:35:26;1.35;;;0.93;;
14342;SDS011;7255;53.596;9.960;2022-07-03T13:37:53;1.40;;;1.20;;
14342;SDS011;7255;53.596;9.960;2022-07-03T13:40:20;1.30;;;1.15;;
14342;SDS011;7255;53.596;9.960;2022-07-03T13:42:47;1.90;;;1.40;;
14342;SDS011;7255;53.596;9.960;2022-07-03T13:45:13;1.65;;;0.80;;
14342;SDS011;7255;53.596;9.960;2022-07-03T13:47:40;1.35;;;0.80;;
14342;SDS011;7255;53.596;9.960;2022-07-03T13:50:07;1.45;;;0.90;;
14342;SDS011;7255;53.596;9.960;2022-07-03T13:52:34;2.50;;;0.90;;
14342;SDS011;7255;53.596;9.960;2022-07-03T13:55:01;1.30;;;0.90;;
14342;SDS011;7255;53.596;9.960;2022-07-03T13:57:28;1.10;;;0.87;;
14342;SDS011;7255;53.596;9.960;2022-07-03T13:59:55;1.27;;;0.90;;
14342;SDS011;7255;53.596;9.960;2022-07-03T14:02:21;0.97;;;0.70;;
14342;SDS011;7255;53.596;9.960;2022-07-03T14:04:47;1.58;;;0.90;;
14342;SDS011;7255;53.596;9.960;2022-07-03T14:07:14;1.70;;;0.90;;
14342;SDS011;7255;53.596;9.960;2022-07-03T14:09:40;1.40;;;0.97;;
14342;SDS011;7255;53.596;9.960;2022-07-03T14:12:06;2.08;;;1.10;;
14342;SDS011;7255;53.596;9.960;2022-07-03T14:14:35;1.40;;;0.90;;
14342;SDS011;7255;53.596;9.960;2022-07-03T14:17:01;1.85;;;0.85;;
14342;SDS011;7255;53.596;9.960;2022-07-03T14:19:28;1.20;;;0.93;;
14342;SDS011;7255;53.596;9.960;2022-07-03T14:21:54;1.53;;;0.80;;
14342;SDS011;7255;53.596;9.960;2022-07-03T14:24:20;1.60;;;0.80;;
14342;SDS011;7255;53.596;9.960;2022-07-03T14:26:47;2.40;;;1.08;;
14342;SDS011;7255;53.596;9.960;2022-07-03T14:29:31;1.70;;;0.90;;
14342;SDS011;7255;53.596;9.960;2022-07-03T14:32:24;1.73;;;0.95;;
14342;SDS011;7255;53.596;9.960;2022-07-03T14:34:57;2.58;;;0.80;;
14342;SDS011;7255;53.596;9.960;2022-07-03T14:37:25;1.23;;;0.90;;
14342;SDS011;7255;53.596;9.960;2022-07-03T14:39:52;2.22;;;0.95;;
14342;SDS011;7255;53.596;9.960;2022-07-03T14:42:18;1.37;;;0.90;;
14342;SDS011;7255;53.596;9.960;2022-07-03T14:44:45;1.08;;;0.80;;
14342;SDS011;7255;53.596;9.960;2022-07-03T14:47:12;3.12;;;0.98;;
14342;SDS011;7255;53.596;9.960;2022-07-03T14:49:39;1.87;;;1.08;;
14342;SDS011;7255;53.596;9.960;2022-07-03T14:52:06;1.85;;;1.00;;
14342;SDS011;7255;53.596;9.960;2022-07-03T14:54:33;2.83;;;1.10;;
14342;SDS011;7255;53.596;9.960;2022-07-03T14:57:00;1.75;;;0.95;;
14342;SDS011;7255;53.596;9.960;2022-07-03T14:59:30;2.40;;;1.00;;
14342;SDS011;7255;53.596;9.960;2022-07-03T15:02:04;1.40;;;0.80;;
14342;SDS011;7255;53.596;9.960;2022-07-03T15:04:45;1.52;;;1.00;;
14342;SDS011;7255;53.596;9.960;2022-07-03T15:07:24;1.40;;;0.80;;
14342;SDS011;7255;53.596;9.960;2022-07-03T15:09:53;1.90;;;0.90;;
14342;SDS011;7255;53.596;9.960;2022-07-03T15:12:27;1.70;;;0.98;;
14342;SDS011;7255;53.596;9.960;2022-07-03T15:14:55;0.82;;;0.73;;
14342;SDS011;7255;53.596;9.960;2022-07-03T15:17:23;1.15;;;0.90;;
14342;SDS011;7255;53.596;9.960;2022-07-03T15:19:50;1.17;;;0.70;;
14342;SDS011;7255;53.596;9.960;2022-07-03T15:22:18;2.17;;;0.90;;